sensor_id;sensor_type;location;lat;lon;timestamp;pressure;altitude;pressure_sealevel;temperature;humidity
74881;BME280;63427;49.654;6.596;2023-01-30T00:00:11;100531.83;;;3.25;42.47
74881;BME280;63427;49.654;6.596;2023-01-30T00:02:36;100532.12;;;2.92;43.02
74881;BME280;63427;49.654;6.596;2023-01-30T00:05:01;100529.88;;;1.90;44.71
74881;BME280;63427;49.654;6.596;2023-01-30T00:07:27;100526.89;;;2.75;43.41
74881;BME280;63427;49.654;6.596;2023-01-30T00:09:53;100502.51;;;3.38;42.65
74881;BME280;63427;49.654;6.596;2023-01-30T00:12:18;100485.95;;;2.36;43.68
74881;BME280;63427;49.654;6.596;2023-01-30T00:14:44;100468.25;;;3.32;42.64
74881;BME280;63427;49.654;6.596;2023-01-30T00:17:09;100460.16;;;3.31;42.57
74881;BME280;63427;49.654;6.596;2023-01-30T00:19:35;100451.86;;;3.33;42.25
74881;BME280;63427;49.654;6.596;2023-01-30T00:22:01;100456.07;;;3.16;42.74
74881;BME280;63427;49.654;6.596;2023-01-30T00:24:25;100441.50;;;3.42;42.66
74881;BME280;63427;49.654;6.596;2023-01-30T00:26:51;100431.12;;;3.07;43.18
74881;BME280;63427;49.654;6.596;2023-01-30T00:29:16;100421.94;;;1.94;45.19
74881;BME280;63427;49.654;6.596;2023-01-30T00:31:42;100438.67;;;2.82;44.33
74881;BME280;63427;49.654;6.596;2023-01-30T00:34:07;100454.38;;;2.90;43.58
74881;BME280;63427;49.654;6.596;2023-01-30T00:36:32;100447.64;;;3.31;43.18
74881;BME280;63427;49.654;6.596;2023-01-30T00:38:58;100449.47;;;2.76;43.63
74881;BME280;63427;49.654;6.596;2023-01-30T00:41:23;100465.65;;;2.90;43.78
74881;BME280;63427;49.654;6.596;2023-01-30T00:43:49;100471.48;;;2.85;43.69
74881;BME280;63427;49.654;6.596;2023-01-30T00:46:21;100455.89;;;3.17;43.15
74881;BME280;63427;49.654;6.596;2023-01-30T00:48:40;100462.21;;;3.08;43.14
74881;BME280;63427;49.654;6.596;2023-01-30T00:51:07;100455.95;;;3.03;42.96
74881;BME280;63427;49.654;6.596;2023-01-30T00:53:32;100461.57;;;3.39;42.91
74881;BME280;63427;49.654;6.596;2023-01-30T00:55:57;100449.39;;;2.89;42.76
74881;BME280;63427;49.654;6.596;2023-01-30T00:58:23;100440.61;;;3.15;43.25
74881;BME280;63427;49.654;6.596;2023-01-30T01:00:49;100446.56;;;3.00;43.39
74881;BME280;63427;49.654;6.596;2023-01-30T01:03:15;100439.07;;;2.97;43.41
74881;BME280;63427;49.654;6.596;2023-01-30T01:05:41;100424.30;;;2.90;43.86
74881;BME280;63427;49.654;6.596;2023-01-30T01:08:06;100425.31;;;3.18;43.51
74881;BME280;63427;49.654;6.596;2023-01-30T01:10:31;100418.32;;;2.87;43.48
74881;BME280;63427;49.654;6.596;2023-01-30T01:12:57;100414.00;;;2.84;43.95
74881;BME280;63427;49.654;6.596;2023-01-30T01:15:23;100396.88;;;3.16;43.55
74881;BME280;63427;49.654;6.596;2023-01-30T01:17:48;100383.60;;;3.06;43.68
74881;BME280;63427;49.654;6.596;2023-01-30T01:20:15;100388.75;;;2.91;43.90
74881;BME280;63427;49.654;6.596;2023-01-30T01:22:39;100384.39;;;1.33;46.23
74881;BME280;63427;49.654;6.596;2023-01-30T01:25:06;100381.21;;;1.94;46.33
74881;BME280;63427;49.654;6.596;2023-01-30T01:27:30;100371.98;;;1.62;46.69
74881;BME280;63427;49.654;6.596;2023-01-30T01:29:56;100368.81;;;1.74;46.58
74881;BME280;63427;49.654;6.596;2023-01-30T01:32:22;100361.29;;;2.67;45.10
74881;BME280;63427;49.654;6.596;2023-01-30T01:34:47;100364.19;;;2.96;44.16
74881;BME280;63427;49.654;6.596;2023-01-30T01:37:12;100358.84;;;2.64;44.31
74881;BME280;63427;49.654;6.596;2023-01-30T01:39:38;100356.15;;;2.88;44.39
74881;BME280;63427;49.654;6.596;2023-01-30T01:42:04;100356.33;;;3.11;43.38
74881;BME280;63427;49.654;6.596;2023-01-30T01:46:56;100363.41;;;1.99;45.68
74881;BME280;63427;49.654;6.596;2023-01-30T01:49:22;100363.72;;;2.86;44.29
74881;BME280;63427;49.654;6.596;2023-01-30T01:51:49;100363.21;;;3.10;44.02
74881;BME280;63427;49.654;6.596;2023-01-30T01:54:14;100362.53;;;2.95;43.34
74881;BME280;63427;49.654;6.596;2023-01-30T01:56:39;100351.91;;;2.97;43.73
74881;BME280;63427;49.654;6.596;2023-01-30T01:59:06;100340.15;;;3.68;42.62
74881;BME280;63427;49.654;6.596;2023-01-30T02:01:28;100336.98;;;3.03;44.26
74881;BME280;63427;49.654;6.596;2023-01-30T02:03:57;100339.11;;;3.05;44.46
74881;BME280;63427;49.654;6.596;2023-01-30T02:06:19;100332.28;;;2.55;45.49
74881;BME280;63427;49.654;6.596;2023-01-30T02:08:45;100321.22;;;2.99;44.79
74881;BME280;63427;49.654;6.596;2023-01-30T02:11:13;100326.49;;;2.54;45.36
74881;BME280;63427;49.654;6.596;2023-01-30T02:13:34;100327.72;;;3.09;44.56
74881;BME280;63427;49.654;6.596;2023-01-30T02:16:01;100326.14;;;2.59;45.50
74881;BME280;63427;49.654;6.596;2023-01-30T02:18:26;100343.25;;;2.95;45.89
74881;BME280;63427;49.654;6.596;2023-01-30T02:21:04;100354.43;;;2.79;46.35
74881;BME280;63427;49.654;6.596;2023-01-30T02:23:32;100342.80;;;2.18;47.91
74881;BME280;63427;49.654;6.596;2023-01-30T02:26:03;100344.89;;;2.76;46.92
74881;BME280;63427;49.654;6.596;2023-01-30T02:28:23;100336.33;;;2.15;47.30
74881;BME280;63427;49.654;6.596;2023-01-30T02:30:41;100327.03;;;3.01;46.15
74881;BME280;63427;49.654;6.596;2023-01-30T02:33:06;100331.78;;;2.73;46.64
74881;BME280;63427;49.654;6.596;2023-01-30T02:35:30;100317.57;;;3.04;45.55
74881;BME280;63427;49.654;6.596;2023-01-30T02:37:59;100311.87;;;2.94;46.15
74881;BME280;63427;49.654;6.596;2023-01-30T02:40:26;100319.84;;;3.69;44.93
74881;BME280;63427;49.654;6.596;2023-01-30T02:42:43;100323.27;;;3.28;44.81
74881;BME280;63427;49.654;6.596;2023-01-30T02:45:11;100314.63;;;2.76;46.39
74881;BME280;63427;49.654;6.596;2023-01-30T02:47:35;100315.22;;;2.15;47.67
74881;BME280;63427;49.654;6.596;2023-01-30T02:49:59;100318.84;;;1.46;48.95
74881;BME280;63427;49.654;6.596;2023-01-30T02:52:21;100315.92;;;1.60;49.47
74881;BME280;63427;49.654;6.596;2023-01-30T02:54:46;100312.42;;;2.34;48.46
74881;BME280;63427;49.654;6.596;2023-01-30T02:57:18;100308.97;;;2.26;48.15
74881;BME280;63427;49.654;6.596;2023-01-30T02:59:39;100316.26;;;2.57;46.85
74881;BME280;63427;49.654;6.596;2023-01-30T03:02:13;100308.49;;;2.54;46.87
74881;BME280;63427;49.654;6.596;2023-01-30T03:04:37;100318.77;;;2.74;46.23
74881;BME280;63427;49.654;6.596;2023-01-30T03:07:09;100324.87;;;1.96;48.17
74881;BME280;63427;49.654;6.596;2023-01-30T03:09:29;100329.00;;;2.03;48.69
74881;BME280;63427;49.654;6.596;2023-01-30T03:11:46;100332.10;;;2.50;47.15
74881;BME280;63427;49.654;6.596;2023-01-30T03:14:13;100334.24;;;2.62;48.09
74881;BME280;63427;49.654;6.596;2023-01-30T03:16:36;100326.72;;;2.73;47.54
74881;BME280;63427;49.654;6.596;2023-01-30T03:18:59;100328.91;;;2.83;46.79
74881;BME280;63427;49.654;6.596;2023-01-30T03:21:24;100331.54;;;3.33;45.93
74881;BME280;63427;49.654;6.596;2023-01-30T03:23:49;100324.62;;;2.72;46.54
74881;BME280;63427;49.654;6.596;2023-01-30T03:26:19;100326.38;;;2.61;47.03
74881;BME280;63427;49.654;6.596;2023-01-30T03:28:40;100329.83;;;2.88;46.54
74881;BME280;63427;49.654;6.596;2023-01-30T03:31:05;100322.75;;;2.95;46.57
74881;BME280;63427;49.654;6.596;2023-01-30T03:33:31;100320.92;;;2.63;47.54
74881;BME280;63427;49.654;6.596;2023-01-30T03:35:56;100318.75;;;3.08;47.45
74881;BME280;63427;49.654;6.596;2023-01-30T03:38:22;100318.79;;;2.91;47.54
74881;BME280;63427;49.654;6.596;2023-01-30T03:40:47;100316.92;;;2.79;48.02
74881;BME280;63427;49.654;6.596;2023-01-30T03:43:13;100317.82;;;2.04;50.12
74881;BME280;63427;49.654;6.596;2023-01-30T03:45:39;100314.64;;;2.92;48.31
74881;BME280;63427;49.654;6.596;2023-01-30T03:48:04;100305.66;;;3.38;47.74
74881;BME280;63427;49.654;6.596;2023-01-30T03:50:29;100309.98;;;3.41;47.26
74881;BME280;63427;49.654;6.596;2023-01-30T03:52:55;100299.57;;;3.41;47.29
74881;BME280;63427;49.654;6.596;2023-01-30T03:55:20;100296.71;;;3.02;48.15
74881;BME280;63427;49.654;6.596;2023-01-30T03:57:45;100288.72;;;3.43;46.84
74881;BME280;63427;49.654;6.596;2023-01-30T04:00:11;100289.98;;;3.56;46.82
74881;BME280;63427;49.654;6.596;2023-01-30T04:02:36;100290.78;;;3.13;47.03
74881;BME280;63427;49.654;6.596;2023-01-30T04:05:02;100293.41;;;3.10;47.11
74881;BME280;63427;49.654;6.596;2023-01-30T04:07:28;100287.14;;;3.48;46.98
74881;BME280;63427;49.654;6.596;2023-01-30T04:09:52;100286.90;;;3.15;47.48
74881;BME280;63427;49.654;6.596;2023-01-30T04:12:17;100279.45;;;3.81;46.60
74881;BME280;63427;49.654;6.596;2023-01-30T04:14:42;100277.26;;;2.93;47.80
74881;BME280;63427;49.654;6.596;2023-01-30T04:17:08;100273.64;;;1.81;50.33
74881;BME280;63427;49.654;6.596;2023-01-30T04:19:34;100253.79;;;2.61;48.75
74881;BME280;63427;49.654;6.596;2023-01-30T04:21:59;100249.16;;;3.19;47.37
74881;BME280;63427;49.654;6.596;2023-01-30T04:24:24;100239.62;;;3.21;47.81
74881;BME280;63427;49.654;6.596;2023-01-30T04:26:49;100251.23;;;3.39;47.68
74881;BME280;63427;49.654;6.596;2023-01-30T04:29:15;100266.08;;;3.22;47.12
74881;BME280;63427;49.654;6.596;2023-01-30T04:31:40;100256.07;;;3.74;46.53
74881;BME280;63427;49.654;6.596;2023-01-30T04:34:06;100263.49;;;2.95;47.47
74881;BME280;63427;49.654;6.596;2023-01-30T04:36:31;100255.29;;;3.78;46.59
74881;BME280;63427;49.654;6.596;2023-01-30T04:38:56;100257.61;;;3.78;46.51
74881;BME280;63427;49.654;6.596;2023-01-30T04:41:22;100251.95;;;3.44;46.45
74881;BME280;63427;49.654;6.596;2023-01-30T04:43:47;100256.79;;;3.19;47.53
74881;BME280;63427;49.654;6.596;2023-01-30T04:46:13;100252.30;;;3.11;48.51
74881;BME280;63427;49.654;6.596;2023-01-30T04:48:38;100244.63;;;3.00;48.24
74881;BME280;63427;49.654;6.596;2023-01-30T04:51:04;100232.22;;;1.95;50.81
74881;BME280;63427;49.654;6.596;2023-01-30T04:53:30;100227.52;;;2.67;50.35
74881;BME280;63427;49.654;6.596;2023-01-30T04:55:56;100236.50;;;1.90;51.36
74881;BME280;63427;49.654;6.596;2023-01-30T04:58:21;100230.61;;;2.79;49.39
74881;BME280;63427;49.654;6.596;2023-01-30T05:00:46;100226.71;;;3.13;48.48
74881;BME280;63427;49.654;6.596;2023-01-30T05:03:11;100224.91;;;2.12;50.32
74881;BME280;63427;49.654;6.596;2023-01-30T05:05:37;100223.57;;;2.60;49.61
74881;BME280;63427;49.654;6.596;2023-01-30T05:08:03;100213.65;;;2.89;49.19
74881;BME280;63427;49.654;6.596;2023-01-30T05:10:28;100207.23;;;2.64;49.63
74881;BME280;63427;49.654;6.596;2023-01-30T05:12:53;100197.74;;;3.16;48.07
74881;BME280;63427;49.654;6.596;2023-01-30T05:15:19;100191.81;;;3.28;47.58
74881;BME280;63427;49.654;6.596;2023-01-30T05:17:45;100214.14;;;3.67;47.41
74881;BME280;63427;49.654;6.596;2023-01-30T05:20:12;100203.80;;;3.50;46.81
74881;BME280;63427;49.654;6.596;2023-01-30T05:22:36;100204.47;;;3.84;46.27
74881;BME280;63427;49.654;6.596;2023-01-30T05:25:01;100202.80;;;3.83;46.90
74881;BME280;63427;49.654;6.596;2023-01-30T05:27:26;100201.36;;;3.18;47.74
74881;BME280;63427;49.654;6.596;2023-01-30T05:29:51;100200.28;;;3.48;47.49
74881;BME280;63427;49.654;6.596;2023-01-30T05:32:19;100198.63;;;3.93;46.17
74881;BME280;63427;49.654;6.596;2023-01-30T05:34:42;100178.83;;;4.37;45.48
74881;BME280;63427;49.654;6.596;2023-01-30T05:37:08;100177.21;;;3.89;45.59
74881;BME280;63427;49.654;6.596;2023-01-30T05:39:33;100182.18;;;4.02;46.16
74881;BME280;63427;49.654;6.596;2023-01-30T05:41:58;100174.72;;;3.87;45.90
74881;BME280;63427;49.654;6.596;2023-01-30T05:44:24;100170.25;;;4.31;45.46
74881;BME280;63427;49.654;6.596;2023-01-30T05:46:49;100165.75;;;4.04;46.00
74881;BME280;63427;49.654;6.596;2023-01-30T05:49:15;100161.68;;;3.74;46.55
74881;BME280;63427;49.654;6.596;2023-01-30T05:51:40;100157.99;;;2.74;48.66
74881;BME280;63427;49.654;6.596;2023-01-30T05:54:06;100153.20;;;3.17;47.91
74881;BME280;63427;49.654;6.596;2023-01-30T05:56:31;100158.87;;;3.67;47.07
74881;BME280;63427;49.654;6.596;2023-01-30T05:58:58;100152.05;;;3.78;47.84
74881;BME280;63427;49.654;6.596;2023-01-30T06:01:23;100150.89;;;2.98;48.69
74881;BME280;63427;49.654;6.596;2023-01-30T06:03:48;100148.70;;;1.80;52.95
74881;BME280;63427;49.654;6.596;2023-01-30T06:06:14;100156.34;;;2.81;50.30
74881;BME280;63427;49.654;6.596;2023-01-30T06:08:40;100165.56;;;2.75;49.72
74881;BME280;63427;49.654;6.596;2023-01-30T06:11:06;100149.04;;;2.92;49.37
74881;BME280;63427;49.654;6.596;2023-01-30T06:13:29;100144.81;;;3.55;49.11
74881;BME280;63427;49.654;6.596;2023-01-30T06:15:55;100154.46;;;2.99;49.93
74881;BME280;63427;49.654;6.596;2023-01-30T06:18:21;100162.22;;;3.48;48.64
74881;BME280;63427;49.654;6.596;2023-01-30T06:20:46;100159.81;;;3.20;48.97
74881;BME280;63427;49.654;6.596;2023-01-30T06:23:11;100173.49;;;3.00;50.18
74881;BME280;63427;49.654;6.596;2023-01-30T06:25:37;100180.11;;;2.78;49.59
74881;BME280;63427;49.654;6.596;2023-01-30T06:28:02;100176.33;;;3.77;48.88
74881;BME280;63427;49.654;6.596;2023-01-30T06:30:27;100182.11;;;2.98;49.72
74881;BME280;63427;49.654;6.596;2023-01-30T06:32:52;100184.50;;;3.53;49.61
74881;BME280;63427;49.654;6.596;2023-01-30T06:35:18;100186.16;;;2.52;51.37
74881;BME280;63427;49.654;6.596;2023-01-30T06:37:43;100191.14;;;3.29;49.35
74881;BME280;63427;49.654;6.596;2023-01-30T06:40:10;100193.65;;;3.21;49.13
74881;BME280;63427;49.654;6.596;2023-01-30T06:42:33;100186.91;;;2.74;49.53
74881;BME280;63427;49.654;6.596;2023-01-30T06:44:59;100184.12;;;3.66;48.49
74881;BME280;63427;49.654;6.596;2023-01-30T06:47:25;100176.58;;;3.43;50.00
74881;BME280;63427;49.654;6.596;2023-01-30T06:49:50;100190.51;;;2.79;50.49
74881;BME280;63427;49.654;6.596;2023-01-30T06:52:15;100185.18;;;3.82;48.62
74881;BME280;63427;49.654;6.596;2023-01-30T06:54:41;100183.67;;;3.75;47.89
74881;BME280;63427;49.654;6.596;2023-01-30T06:57:06;100186.77;;;3.93;47.91
74881;BME280;63427;49.654;6.596;2023-01-30T06:59:32;100189.77;;;3.57;48.29
74881;BME280;63427;49.654;6.596;2023-01-30T07:01:57;100183.14;;;3.54;48.37
74881;BME280;63427;49.654;6.596;2023-01-30T07:04:23;100185.45;;;3.86;47.85
74881;BME280;63427;49.654;6.596;2023-01-30T07:06:49;100193.13;;;3.07;49.89
74881;BME280;63427;49.654;6.596;2023-01-30T07:09:14;100195.11;;;2.86;51.03
74881;BME280;63427;49.654;6.596;2023-01-30T07:11:40;100191.35;;;3.74;49.48
74881;BME280;63427;49.654;6.596;2023-01-30T07:14:05;100183.46;;;3.33;50.31
74881;BME280;63427;49.654;6.596;2023-01-30T07:16:31;100185.21;;;3.45;49.41
74881;BME280;63427;49.654;6.596;2023-01-30T07:18:56;100200.45;;;3.36;50.08
74881;BME280;63427;49.654;6.596;2023-01-30T07:21:22;100208.67;;;3.52;49.79
74881;BME280;63427;49.654;6.596;2023-01-30T07:23:47;100214.89;;;3.54;49.40
74881;BME280;63427;49.654;6.596;2023-01-30T07:26:13;100213.56;;;3.06;51.26
74881;BME280;63427;49.654;6.596;2023-01-30T07:28:38;100207.96;;;3.61;50.26
74881;BME280;63427;49.654;6.596;2023-01-30T07:31:04;100198.51;;;3.63;49.72
74881;BME280;63427;49.654;6.596;2023-01-30T07:33:30;100195.26;;;3.97;48.71
74881;BME280;63427;49.654;6.596;2023-01-30T07:35:55;100198.88;;;4.34;48.08
74881;BME280;63427;49.654;6.596;2023-01-30T07:38:20;100213.02;;;3.71;49.44
74881;BME280;63427;49.654;6.596;2023-01-30T07:40:45;100208.22;;;3.76;48.64
74881;BME280;63427;49.654;6.596;2023-01-30T07:43:12;100212.04;;;4.21;48.12
74881;BME280;63427;49.654;6.596;2023-01-30T07:45:37;100212.72;;;4.38;47.61
74881;BME280;63427;49.654;6.596;2023-01-30T07:48:01;100214.32;;;4.21;48.27
74881;BME280;63427;49.654;6.596;2023-01-30T07:50:27;100209.90;;;4.44;47.88
74881;BME280;63427;49.654;6.596;2023-01-30T07:52:52;100213.68;;;4.37;47.42
74881;BME280;63427;49.654;6.596;2023-01-30T07:55:18;100221.41;;;4.18;48.46
74881;BME280;63427;49.654;6.596;2023-01-30T07:57:43;100219.37;;;3.83;49.23
74881;BME280;63427;49.654;6.596;2023-01-30T08:00:10;100206.79;;;3.52;49.87
74881;BME280;63427;49.654;6.596;2023-01-30T08:02:33;100187.17;;;4.09;49.10
74881;BME280;63427;49.654;6.596;2023-01-30T08:04:59;100191.56;;;4.35;48.41
74881;BME280;63427;49.654;6.596;2023-01-30T08:07:25;100190.60;;;3.50;49.82
74881;BME280;63427;49.654;6.596;2023-01-30T08:09:50;100196.67;;;3.88;49.43
74881;BME280;63427;49.654;6.596;2023-01-30T08:12:16;100200.71;;;3.40;50.61
74881;BME280;63427;49.654;6.596;2023-01-30T08:14:42;100192.91;;;3.65;50.48
74881;BME280;63427;49.654;6.596;2023-01-30T08:17:07;100188.10;;;3.16;50.08
74881;BME280;63427;49.654;6.596;2023-01-30T08:19:33;100184.08;;;4.07;49.26
74881;BME280;63427;49.654;6.596;2023-01-30T08:21:59;100185.87;;;3.81;49.06
74881;BME280;63427;49.654;6.596;2023-01-30T08:24:24;100181.58;;;4.07;49.02
74881;BME280;63427;49.654;6.596;2023-01-30T08:26:49;100186.62;;;4.23;48.69
74881;BME280;63427;49.654;6.596;2023-01-30T08:29:15;100184.23;;;3.56;49.96
74881;BME280;63427;49.654;6.596;2023-01-30T08:31:40;100199.39;;;4.27;49.37
74881;BME280;63427;49.654;6.596;2023-01-30T08:34:05;100194.40;;;4.07;48.86
74881;BME280;63427;49.654;6.596;2023-01-30T08:36:30;100199.59;;;4.24;49.07
74881;BME280;63427;49.654;6.596;2023-01-30T08:38:55;100201.43;;;4.28;48.60
74881;BME280;63427;49.654;6.596;2023-01-30T08:41:21;100214.80;;;3.93;49.38
74881;BME280;63427;49.654;6.596;2023-01-30T08:43:46;100209.94;;;3.82;48.79
74881;BME280;63427;49.654;6.596;2023-01-30T08:46:12;100210.43;;;4.63;48.55
74881;BME280;63427;49.654;6.596;2023-01-30T08:48:37;100217.07;;;4.64;48.06
74881;BME280;63427;49.654;6.596;2023-01-30T08:51:03;100208.56;;;4.26;48.53
74881;BME280;63427;49.654;6.596;2023-01-30T08:53:28;100210.28;;;4.61;48.67
74881;BME280;63427;49.654;6.596;2023-01-30T08:55:54;100211.84;;;4.53;48.94
74881;BME280;63427;49.654;6.596;2023-01-30T08:58:19;100220.62;;;4.99;47.63
74881;BME280;63427;49.654;6.596;2023-01-30T09:00:44;100221.70;;;5.42;46.98
74881;BME280;63427;49.654;6.596;2023-01-30T09:03:10;100223.77;;;4.42;48.11
74881;BME280;63427;49.654;6.596;2023-01-30T09:05:35;100225.46;;;4.33;48.70
74881;BME280;63427;49.654;6.596;2023-01-30T09:08:01;100219.82;;;4.96;48.23
74881;BME280;63427;49.654;6.596;2023-01-30T09:10:27;100217.33;;;4.93;47.72
74881;BME280;63427;49.654;6.596;2023-01-30T09:12:52;100212.69;;;4.74;47.66
74881;BME280;63427;49.654;6.596;2023-01-30T09:15:17;100201.99;;;5.08;47.06
74881;BME280;63427;49.654;6.596;2023-01-30T09:17:43;100195.21;;;4.84;47.20
74881;BME280;63427;49.654;6.596;2023-01-30T09:20:09;100186.20;;;5.12;47.19
74881;BME280;63427;49.654;6.596;2023-01-30T09:22:33;100188.23;;;4.63;48.08
74881;BME280;63427;49.654;6.596;2023-01-30T09:24:58;100188.88;;;5.13;47.22
74881;BME280;63427;49.654;6.596;2023-01-30T09:27:23;100193.73;;;4.99;47.45
74881;BME280;63427;49.654;6.596;2023-01-30T09:29:49;100200.97;;;4.75;47.39
74881;BME280;63427;49.654;6.596;2023-01-30T09:32:15;100200.75;;;4.62;48.38
74881;BME280;63427;49.654;6.596;2023-01-30T09:34:40;100204.94;;;5.20;47.64
74881;BME280;63427;49.654;6.596;2023-01-30T09:37:05;100198.10;;;4.45;49.52
74881;BME280;63427;49.654;6.596;2023-01-30T09:39:31;100202.99;;;4.75;48.07
74881;BME280;63427;49.654;6.596;2023-01-30T09:42:13;100202.61;;;4.52;48.56
74881;BME280;63427;49.654;6.596;2023-01-30T09:44:35;100206.35;;;4.64;48.68
74881;BME280;63427;49.654;6.596;2023-01-30T09:46:53;100200.05;;;5.00;47.95
74881;BME280;63427;49.654;6.596;2023-01-30T09:49:24;100196.83;;;4.36;48.97
74881;BME280;63427;49.654;6.596;2023-01-30T09:51:45;100192.10;;;4.31;49.66
74881;BME280;63427;49.654;6.596;2023-01-30T09:54:13;100188.31;;;5.06;48.83
74881;BME280;63427;49.654;6.596;2023-01-30T09:56:31;100203.15;;;5.17;47.93
74881;BME280;63427;49.654;6.596;2023-01-30T09:58:58;100197.09;;;5.05;48.33
74881;BME280;63427;49.654;6.596;2023-01-30T10:01:26;100192.50;;;5.20;47.23
74881;BME280;63427;49.654;6.596;2023-01-30T10:03:57;100195.40;;;5.47;46.95
74881;BME280;63427;49.654;6.596;2023-01-30T10:06:14;100203.66;;;5.40;47.28
74881;BME280;63427;49.654;6.596;2023-01-30T10:08:48;100208.54;;;5.34;47.84
74881;BME280;63427;49.654;6.596;2023-01-30T10:11:11;100221.05;;;5.55;46.76
74881;BME280;63427;49.654;6.596;2023-01-30T10:13:43;100232.23;;;5.69;46.41
74881;BME280;63427;49.654;6.596;2023-01-30T10:16:02;100239.30;;;5.43;47.17
74881;BME280;63427;49.654;6.596;2023-01-30T10:18:39;100232.94;;;5.92;46.76
74881;BME280;63427;49.654;6.596;2023-01-30T10:20:51;100215.85;;;5.39;47.10
74881;BME280;63427;49.654;6.596;2023-01-30T10:23:31;100208.23;;;5.90;47.22
74881;BME280;63427;49.654;6.596;2023-01-30T10:25:43;100207.89;;;4.58;49.29
74881;BME280;63427;49.654;6.596;2023-01-30T10:28:10;100197.51;;;4.60;50.68
74881;BME280;63427;49.654;6.596;2023-01-30T10:30:32;100194.97;;;5.22;48.97
74881;BME280;63427;49.654;6.596;2023-01-30T10:33:01;100196.92;;;5.79;47.81
74881;BME280;63427;49.654;6.596;2023-01-30T10:35:26;100200.12;;;5.95;47.49
74881;BME280;63427;49.654;6.596;2023-01-30T10:37:55;100202.22;;;5.37;47.81
74881;BME280;63427;49.654;6.596;2023-01-30T10:40:20;100197.18;;;5.58;48.22
74881;BME280;63427;49.654;6.596;2023-01-30T10:42:45;100196.78;;;4.83;49.91
74881;BME280;63427;49.654;6.596;2023-01-30T10:45:11;100197.15;;;5.50;48.62
74881;BME280;63427;49.654;6.596;2023-01-30T10:47:41;100198.61;;;6.02;47.55
74881;BME280;63427;49.654;6.596;2023-01-30T10:50:04;100201.62;;;5.71;47.80
74881;BME280;63427;49.654;6.596;2023-01-30T10:52:33;100194.11;;;6.16;46.95
74881;BME280;63427;49.654;6.596;2023-01-30T10:54:59;100188.70;;;6.08;46.71
74881;BME280;63427;49.654;6.596;2023-01-30T10:57:20;100191.74;;;5.82;46.86
74881;BME280;63427;49.654;6.596;2023-01-30T10:59:47;100195.90;;;6.33;46.58
74881;BME280;63427;49.654;6.596;2023-01-30T11:02:15;100201.30;;;6.33;46.52
74881;BME280;63427;49.654;6.596;2023-01-30T11:04:37;100199.95;;;6.00;47.10
74881;BME280;63427;49.654;6.596;2023-01-30T11:06:59;100195.75;;;5.48;48.63
74881;BME280;63427;49.654;6.596;2023-01-30T11:09:23;100189.80;;;5.59;47.82
74881;BME280;63427;49.654;6.596;2023-01-30T11:11:50;100196.85;;;5.66;47.73
74881;BME280;63427;49.654;6.596;2023-01-30T11:14:14;100198.37;;;5.79;48.36
74881;BME280;63427;49.654;6.596;2023-01-30T11:16:43;100187.22;;;5.78;47.57
74881;BME280;63427;49.654;6.596;2023-01-30T11:19:05;100194.81;;;5.60;48.11
74881;BME280;63427;49.654;6.596;2023-01-30T11:21:32;100183.29;;;6.13;47.27
74881;BME280;63427;49.654;6.596;2023-01-30T11:24:03;100182.08;;;6.26;46.89
74881;BME280;63427;49.654;6.596;2023-01-30T11:26:23;100178.02;;;6.08;46.77
74881;BME280;63427;49.654;6.596;2023-01-30T11:28:47;100182.73;;;6.34;46.38
74881;BME280;63427;49.654;6.596;2023-01-30T11:31:17;100180.99;;;6.08;46.58
74881;BME280;63427;49.654;6.596;2023-01-30T11:33:39;100180.77;;;6.52;46.97
74881;BME280;63427;49.654;6.596;2023-01-30T11:36:08;100174.41;;;6.55;46.17
74881;BME280;63427;49.654;6.596;2023-01-30T11:38:32;100181.98;;;5.71;47.57
74881;BME280;63427;49.654;6.596;2023-01-30T11:41:03;100185.65;;;5.97;47.67
74881;BME280;63427;49.654;6.596;2023-01-30T11:43:23;100178.72;;;6.24;47.65
74881;BME280;63427;49.654;6.596;2023-01-30T11:45:49;100168.01;;;6.16;47.76
74881;BME280;63427;49.654;6.596;2023-01-30T11:48:16;100166.05;;;6.31;47.53
74881;BME280;63427;49.654;6.596;2023-01-30T11:50:41;100163.34;;;6.29;48.14
74881;BME280;63427;49.654;6.596;2023-01-30T11:53:14;100157.19;;;6.41;47.77
74881;BME280;63427;49.654;6.596;2023-01-30T11:55:39;100152.76;;;6.53;47.66
74881;BME280;63427;49.654;6.596;2023-01-30T11:57:59;100139.86;;;6.40;47.20
74881;BME280;63427;49.654;6.596;2023-01-30T12:00:27;100146.48;;;7.08;46.41
74881;BME280;63427;49.654;6.596;2023-01-30T12:02:50;100144.55;;;6.78;46.42
74881;BME280;63427;49.654;6.596;2023-01-30T12:05:25;100144.60;;;7.36;45.44
74881;BME280;63427;49.654;6.596;2023-01-30T12:07:46;100148.98;;;7.40;45.67
74881;BME280;63427;49.654;6.596;2023-01-30T12:12:43;100144.63;;;7.21;45.47
74881;BME280;63427;49.654;6.596;2023-01-30T12:17:32;100145.24;;;7.22;45.50
74881;BME280;63427;49.654;6.596;2023-01-30T12:19:59;100145.13;;;7.34;45.57
74881;BME280;63427;49.654;6.596;2023-01-30T12:25:09;100128.00;;;7.78;44.55
74881;BME280;63427;49.654;6.596;2023-01-30T12:27:15;100128.73;;;8.02;43.26
74881;BME280;63427;49.654;6.596;2023-01-30T12:29:56;100128.61;;;7.98;43.97
74881;BME280;63427;49.654;6.596;2023-01-30T12:32:16;100134.46;;;7.82;44.04
74881;BME280;63427;49.654;6.596;2023-01-30T12:34:37;100134.76;;;8.43;43.13
74881;BME280;63427;49.654;6.596;2023-01-30T12:39:35;100130.90;;;8.29;43.36
74881;BME280;63427;49.654;6.596;2023-01-30T12:44:35;100136.42;;;8.56;43.06
74881;BME280;63427;49.654;6.596;2023-01-30T12:51:52;100114.98;;;9.73;41.04
74881;BME280;63427;49.654;6.596;2023-01-30T12:54:16;100107.57;;;9.58;41.50
74881;BME280;63427;49.654;6.596;2023-01-30T12:58:50;100106.89;;;10.53;39.80
74881;BME280;63427;49.654;6.596;2023-01-30T13:37:33;100105.53;;;10.08;38.45
74881;BME280;63427;49.654;6.596;2023-01-30T13:39:55;100109.49;;;10.25;38.53
74881;BME280;63427;49.654;6.596;2023-01-30T13:42:25;100118.35;;;10.14;38.44
74881;BME280;63427;49.654;6.596;2023-01-30T13:44:43;100125.34;;;10.39;38.53
74881;BME280;63427;49.654;6.596;2023-01-30T13:47:19;100122.82;;;10.30;38.27